createdAt,value
2023-05-20T00:00:01.835Z,42.48
2023-05-20T00:02:28.791Z,42.57
2023-05-20T00:04:55.776Z,42.62
2023-05-20T00:07:22.567Z,42.56
2023-05-20T00:09:48.934Z,42.65
2023-05-20T00:12:15.379Z,42.61
2023-05-20T00:14:41.774Z,42.60
2023-05-20T00:17:08.167Z,42.63
2023-05-20T00:19:34.550Z,42.42
2023-05-20T00:22:00.981Z,42.33
2023-05-20T00:24:27.362Z,42.40
2023-05-20T00:26:53.818Z,42.39
2023-05-20T00:29:21.055Z,42.19
2023-05-20T00:31:48.377Z,42.36
2023-05-20T00:34:15.212Z,42.51
2023-05-20T00:36:42.989Z,42.71
2023-05-20T00:39:09.536Z,42.82
2023-05-20T00:41:36.068Z,42.84
2023-05-20T00:44:02.458Z,42.73
2023-05-20T00:46:29.694Z,43.07
2023-05-20T00:48:56.227Z,43.13
2023-05-20T00:51:22.618Z,43.14
2023-05-20T00:53:49.064Z,43.10
2023-05-20T00:56:15.465Z,43.20
2023-05-20T00:58:41.976Z,43.23
2023-05-20T01:01:08.392Z,43.37
2023-05-20T01:03:35.050Z,43.19
2023-05-20T01:06:02.150Z,43.28
2023-05-20T01:08:28.720Z,43.14
2023-05-20T01:11:06.358Z,43.23
2023-05-20T01:13:34.133Z,43.14
2023-05-20T01:16:01.066Z,43.22
2023-05-20T01:18:30.103Z,43.31
2023-05-20T01:21:01.616Z,43.15
2023-05-20T01:23:40.932Z,43.28
2023-05-20T01:26:08.367Z,43.06
2023-05-20T01:28:34.977Z,43.07
2023-05-20T01:31:01.742Z,43.04
2023-05-20T01:33:28.765Z,43.17
2023-05-20T01:35:55.488Z,43.25
2023-05-20T01:38:22.008Z,43.21
2023-05-20T01:40:49.072Z,43.35
2023-05-20T01:43:17.597Z,43.26
2023-05-20T01:45:44.578Z,43.36
2023-05-20T01:48:11.646Z,43.39
2023-05-20T01:50:38.287Z,43.37
2023-05-20T01:53:04.687Z,43.40
2023-05-20T01:55:31.077Z,43.33
2023-05-20T01:57:57.454Z,43.29
2023-05-20T02:00:23.879Z,43.35
2023-05-20T02:02:50.355Z,43.44
2023-05-20T02:05:16.787Z,43.38
2023-05-20T02:07:43.419Z,43.47
2023-05-20T02:10:09.972Z,43.41
2023-05-20T02:12:36.466Z,43.48
2023-05-20T02:15:02.958Z,43.40
2023-05-20T02:17:29.380Z,43.31
2023-05-20T02:19:57.135Z,43.52
2023-05-20T02:22:23.520Z,43.34
2023-05-20T02:24:49.891Z,43.49
2023-05-20T02:27:16.283Z,43.49
2023-05-20T02:29:43.059Z,43.51
2023-05-20T02:32:11.221Z,43.56
2023-05-20T02:34:37.628Z,43.51
2023-05-20T02:37:05.213Z,43.50
2023-05-20T02:39:31.956Z,43.44
2023-05-20T02:41:58.343Z,43.56
2023-05-20T02:44:25.469Z,43.54
2023-05-20T02:46:51.918Z,43.47
2023-05-20T02:49:18.334Z,43.44
2023-05-20T02:51:45.145Z,43.54
2023-05-20T02:54:12.047Z,43.55
2023-05-20T02:56:38.481Z,43.58
2023-05-20T02:59:06.367Z,43.44
2023-05-20T03:01:35.490Z,43.56
2023-05-20T03:04:02.596Z,43.55
2023-05-20T03:06:30.545Z,43.44
2023-05-20T03:08:56.941Z,43.53
2023-05-20T03:11:23.348Z,43.62
2023-05-20T03:13:49.758Z,43.68
2023-05-20T03:16:17.196Z,43.72
2023-05-20T03:18:44.493Z,43.61
2023-05-20T03:21:10.937Z,43.62
2023-05-20T03:23:37.793Z,43.72
2023-05-20T03:26:04.616Z,43.67
2023-05-20T03:28:31.029Z,43.80
2023-05-20T03:30:57.922Z,44.00
2023-05-20T03:33:26.300Z,43.79
2023-05-20T03:35:53.472Z,43.88
2023-05-20T03:38:19.937Z,43.87
2023-05-20T03:40:46.372Z,43.84
2023-05-20T03:43:12.764Z,43.93
2023-05-20T03:45:39.140Z,43.78
2023-05-20T03:48:07.184Z,43.96
2023-05-20T03:50:35.091Z,43.92
2023-05-20T03:53:01.538Z,43.95
2023-05-20T03:55:33.896Z,43.95
2023-05-20T03:58:01.395Z,43.95
2023-05-20T04:00:27.926Z,44.11
2023-05-20T04:02:54.599Z,44.13
2023-05-20T04:05:21.293Z,44.13
2023-05-20T04:07:47.834Z,44.12
2023-05-20T04:10:14.552Z,44.10
2023-05-20T04:12:41.514Z,44.00
2023-05-20T04:15:08.208Z,44.11
2023-05-20T04:17:43.686Z,44.05
2023-05-20T04:20:11.394Z,44.09
2023-05-20T04:22:39.444Z,44.17
2023-05-20T04:25:06.559Z,44.21
2023-05-20T04:27:37.566Z,44.16
2023-05-20T04:30:04.648Z,44.06
2023-05-20T04:32:36.612Z,44.13
2023-05-20T04:35:03.155Z,44.36
2023-05-20T04:37:33.181Z,44.29
2023-05-20T04:39:59.628Z,44.35
2023-05-20T04:42:27.879Z,44.18
2023-05-20T04:44:54.670Z,44.31
2023-05-20T04:47:21.080Z,44.26
2023-05-20T04:49:47.885Z,44.45
2023-05-20T04:52:14.273Z,44.28
2023-05-20T04:54:40.667Z,44.30
2023-05-20T04:57:07.627Z,44.25
2023-05-20T04:59:34.839Z,44.41
2023-05-20T05:02:01.300Z,44.39
2023-05-20T05:04:27.793Z,44.33
2023-05-20T05:06:54.204Z,44.36
2023-05-20T05:09:20.972Z,44.40
2023-05-20T05:11:47.393Z,44.30
2023-05-20T05:14:13.796Z,44.21
2023-05-20T05:16:40.332Z,44.40
2023-05-20T05:19:07.287Z,44.38
2023-05-20T05:21:37.012Z,44.42
2023-05-20T05:24:03.874Z,44.38
2023-05-20T05:26:30.343Z,44.44
2023-05-20T05:28:56.782Z,44.31
2023-05-20T05:31:23.214Z,44.44
2023-05-20T05:33:49.872Z,44.43
2023-05-20T05:36:16.632Z,44.41
2023-05-20T05:38:43.658Z,44.43
2023-05-20T05:41:10.230Z,44.48
2023-05-20T05:43:37.139Z,44.43
2023-05-20T05:46:05.166Z,44.44
2023-05-20T05:48:32.338Z,44.50
2023-05-20T05:50:59.231Z,44.49
2023-05-20T05:53:26.284Z,44.40
2023-05-20T05:55:52.715Z,44.52
2023-05-20T05:58:19.197Z,44.49
2023-05-20T06:00:45.605Z,44.57
2023-05-20T06:03:12.293Z,44.55
2023-05-20T06:05:39.807Z,44.85
2023-05-20T06:08:06.227Z,46.61
2023-05-20T06:10:34.372Z,47.73
2023-05-20T06:13:00.877Z,48.29
2023-05-20T06:15:27.801Z,48.54
2023-05-20T06:17:54.356Z,49.00
2023-05-20T06:20:20.891Z,49.12
2023-05-20T06:22:47.331Z,48.95
2023-05-20T06:25:13.751Z,49.20
2023-05-20T06:27:41.187Z,49.34
2023-05-20T06:30:10.666Z,49.26
2023-05-20T06:32:37.313Z,48.38
2023-05-20T06:35:03.791Z,47.76
2023-05-20T06:37:30.348Z,47.27
2023-05-20T06:39:57.329Z,46.87
2023-05-20T06:42:23.739Z,46.69
2023-05-20T06:45:02.735Z,46.64
2023-05-20T06:47:35.895Z,46.42
2023-05-20T06:50:02.491Z,46.49
2023-05-20T06:52:30.001Z,46.48
2023-05-20T06:54:56.412Z,46.51
2023-05-20T06:57:23.611Z,46.39
2023-05-20T06:59:50.004Z,46.43
2023-05-20T07:02:17.553Z,46.39
2023-05-20T07:04:43.940Z,46.34
2023-05-20T07:07:10.458Z,46.47
2023-05-20T07:09:37.184Z,46.17
2023-05-20T07:12:05.826Z,46.24
2023-05-20T07:14:32.226Z,46.39
2023-05-20T07:16:58.657Z,48.48
2023-05-20T07:19:25.156Z,49.46
2023-05-20T07:21:51.711Z,48.86
2023-05-20T07:24:36.845Z,48.08
2023-05-20T07:27:04.480Z,47.76
2023-05-20T07:29:31.297Z,47.47
2023-05-20T07:31:58.119Z,47.32
2023-05-20T07:34:24.878Z,47.86
2023-05-20T07:36:51.640Z,47.60
2023-05-20T07:39:18.074Z,47.35
2023-05-20T07:41:44.494Z,47.05
2023-05-20T07:44:13.033Z,47.07
2023-05-20T07:46:42.828Z,46.89
2023-05-20T07:49:10.664Z,47.05
2023-05-20T07:51:38.775Z,46.99
2023-05-20T07:54:05.715Z,46.97
2023-05-20T07:56:33.189Z,46.88
2023-05-20T07:59:00.178Z,46.92
2023-05-20T08:01:30.120Z,46.69
2023-05-20T08:03:56.693Z,46.75
2023-05-20T08:06:25.458Z,46.64
2023-05-20T08:08:56.180Z,46.75
2023-05-20T08:11:28.373Z,46.67
2023-05-20T08:13:54.773Z,46.51
2023-05-20T08:16:23.588Z,46.52
2023-05-20T08:18:50.079Z,46.43
2023-05-20T08:21:16.495Z,46.34
2023-05-20T08:23:42.883Z,46.52
2023-05-20T08:26:09.317Z,46.50
2023-05-20T08:28:39.829Z,46.42
2023-05-20T08:31:06.979Z,46.55
2023-05-20T08:33:33.625Z,46.42
2023-05-20T08:36:00.731Z,47.79
2023-05-20T08:38:28.188Z,48.30
2023-05-20T08:40:57.292Z,48.68
2023-05-20T08:43:24.377Z,48.50
2023-05-20T08:45:52.532Z,48.69
2023-05-20T08:48:20.636Z,48.10
2023-05-20T08:50:49.623Z,48.08
2023-05-20T08:53:16.012Z,48.10
2023-05-20T08:55:42.742Z,47.92
2023-05-20T08:58:09.504Z,47.75
2023-05-20T09:00:36.391Z,47.66
2023-05-20T09:03:02.846Z,47.61
2023-05-20T09:05:29.281Z,47.28
2023-05-20T09:08:06.676Z,47.37
2023-05-20T09:10:33.449Z,47.25
2023-05-20T09:13:01.363Z,47.23
2023-05-20T09:15:27.752Z,47.09
2023-05-20T09:17:54.168Z,47.09
2023-05-20T09:20:21.521Z,47.10
2023-05-20T09:22:50.476Z,46.94
2023-05-20T09:25:18.845Z,47.39
2023-05-20T09:27:45.272Z,47.59
2023-05-20T09:30:12.950Z,47.98
2023-05-20T09:32:39.374Z,48.66
2023-05-20T09:35:06.425Z,49.08
2023-05-20T09:37:33.415Z,49.39
2023-05-20T09:40:00.624Z,49.25
2023-05-20T09:42:29.130Z,49.18
2023-05-20T09:44:56.316Z,49.49
2023-05-20T09:47:24.060Z,50.56
2023-05-20T09:49:50.444Z,51.71
2023-05-20T09:52:18.226Z,51.64
2023-05-20T09:54:45.703Z,51.71
2023-05-20T09:57:12.429Z,52.38
2023-05-20T09:59:38.968Z,52.25
2023-05-20T10:02:05.849Z,51.93
2023-05-20T10:04:33.066Z,51.38
2023-05-20T10:07:20.968Z,51.06
2023-05-20T10:10:23.661Z,50.72
2023-05-20T10:12:59.061Z,50.48
2023-05-20T10:15:37.697Z,50.30
2023-05-20T10:18:27.384Z,50.00
2023-05-20T10:20:53.772Z,50.10
2023-05-20T10:23:23.512Z,50.13
2023-05-20T10:25:53.521Z,49.89
2023-05-20T10:28:30.498Z,50.21
2023-05-20T10:30:57.217Z,50.29
2023-05-20T10:33:23.677Z,50.24
2023-05-20T10:35:50.548Z,49.99
2023-05-20T10:38:16.917Z,49.99
2023-05-20T10:40:43.304Z,49.90
2023-05-20T10:43:11.329Z,49.66
2023-05-20T10:45:47.233Z,49.75
2023-05-20T10:48:19.996Z,49.75
2023-05-20T10:50:46.441Z,49.82
2023-05-20T10:53:18.809Z,50.14
2023-05-20T10:55:52.231Z,50.26
2023-05-20T10:58:19.624Z,50.13
2023-05-20T11:00:46.044Z,50.00
2023-05-20T11:03:13.148Z,50.04
2023-05-20T11:05:39.660Z,49.62
2023-05-20T11:08:14.022Z,49.52
2023-05-20T11:10:50.920Z,49.65
2023-05-20T11:13:17.904Z,49.32
2023-05-20T11:15:44.415Z,49.21
2023-05-20T11:18:11.501Z,49.19
2023-05-20T11:20:37.962Z,49.23
2023-05-20T11:23:05.690Z,49.16
2023-05-20T11:25:32.794Z,49.07
2023-05-20T11:27:59.304Z,49.03
2023-05-20T11:30:25.922Z,48.89
2023-05-20T11:32:59.331Z,48.90
2023-05-20T11:35:26.013Z,48.79
2023-05-20T11:38:01.605Z,48.77
2023-05-20T11:40:32.920Z,48.59
2023-05-20T11:43:05.889Z,48.64
2023-05-20T11:45:41.788Z,48.59
2023-05-20T11:48:08.762Z,48.33
2023-05-20T11:50:45.114Z,48.37
2023-05-20T11:53:11.925Z,48.35
2023-05-20T11:55:48.489Z,48.08
2023-05-20T11:58:24.512Z,48.07
2023-05-20T12:00:55.033Z,48.15
2023-05-20T12:03:23.483Z,47.93
2023-05-20T12:05:50.758Z,48.04
2023-05-20T12:08:17.228Z,47.83
2023-05-20T12:10:45.055Z,47.76
2023-05-20T12:13:13.443Z,47.75
2023-05-20T12:15:39.894Z,47.77
2023-05-20T12:18:06.345Z,47.63
2023-05-20T12:20:34.570Z,47.50
2023-05-20T12:23:01.218Z,47.69
2023-05-20T12:25:27.606Z,47.62
2023-05-20T12:27:53.980Z,47.66
2023-05-20T12:30:20.695Z,47.61
2023-05-20T12:32:47.318Z,47.55
2023-05-20T12:35:13.838Z,47.51
2023-05-20T12:37:41.348Z,47.53
2023-05-20T12:40:08.487Z,47.53
2023-05-20T12:42:35.824Z,47.59
2023-05-20T12:45:02.328Z,47.42
2023-05-20T12:47:28.714Z,47.62
2023-05-20T12:49:55.080Z,47.70
2023-05-20T12:52:22.803Z,47.46
2023-05-20T12:54:49.430Z,47.57
2023-05-20T12:57:15.813Z,47.52
2023-05-20T12:59:42.212Z,47.49
2023-05-20T13:02:09.888Z,47.59
2023-05-20T13:04:36.320Z,47.82
2023-05-20T13:07:02.774Z,47.78
2023-05-20T13:09:29.145Z,47.70
2023-05-20T13:11:55.562Z,47.68
2023-05-20T13:14:22.161Z,47.57
2023-05-20T13:16:49.997Z,47.59
2023-05-20T13:19:16.507Z,47.64
2023-05-20T13:21:42.986Z,47.51
2023-05-20T13:24:09.382Z,47.53
2023-05-20T13:26:35.769Z,47.63
2023-05-20T13:29:02.554Z,47.72
2023-05-20T13:31:28.996Z,47.45
2023-05-20T13:33:56.746Z,47.68
2023-05-20T13:36:23.123Z,47.65
2023-05-20T13:38:49.681Z,47.34
2023-05-20T13:41:16.084Z,47.35
2023-05-20T13:43:42.481Z,47.29
2023-05-20T13:46:09.137Z,47.53
2023-05-20T13:48:35.629Z,47.47
2023-05-20T13:51:02.037Z,47.42
2023-05-20T13:53:28.631Z,47.46
2023-05-20T13:55:55.003Z,47.34
2023-05-20T13:58:21.408Z,47.33
2023-05-20T14:00:47.956Z,47.32
2023-05-20T14:03:14.494Z,47.42
2023-05-20T14:05:41.464Z,47.29
2023-05-20T14:08:08.025Z,47.24
2023-05-20T14:10:34.594Z,47.40
2023-05-20T14:13:02.143Z,47.24
2023-05-20T14:15:31.612Z,47.28
2023-05-20T14:17:58.171Z,47.24
2023-05-20T14:20:24.849Z,47.41
2023-05-20T14:22:54.209Z,47.37
2023-05-20T14:25:20.703Z,47.22
2023-05-20T14:27:47.077Z,47.19
2023-05-20T14:30:13.444Z,47.51
2023-05-20T14:32:39.982Z,47.24
2023-05-20T14:35:06.581Z,47.25
2023-05-20T14:37:32.975Z,47.32
2023-05-20T14:39:59.413Z,47.24
2023-05-20T14:42:26.177Z,47.34
2023-05-20T14:44:52.574Z,47.45
2023-05-20T14:47:22.018Z,47.47
2023-05-20T14:49:49.962Z,47.33
2023-05-20T14:52:17.146Z,47.34
2023-05-20T14:54:43.544Z,47.42
2023-05-20T14:57:10.095Z,47.45
2023-05-20T14:59:36.672Z,47.39
2023-05-20T15:02:03.259Z,47.44
2023-05-20T15:04:29.976Z,47.39
2023-05-20T15:06:56.339Z,47.26
2023-05-20T15:09:22.789Z,47.24
2023-05-20T15:11:49.197Z,47.40
2023-05-20T15:14:15.580Z,47.31
2023-05-20T15:16:42.073Z,47.45
2023-05-20T15:19:08.549Z,47.23
2023-05-20T15:21:34.919Z,47.27
2023-05-20T15:24:01.332Z,47.23
2023-05-20T15:26:27.720Z,47.32
2023-05-20T15:28:54.112Z,47.41
2023-05-20T15:31:20.738Z,47.21
2023-05-20T15:33:47.317Z,47.43
2023-05-20T15:36:13.706Z,47.25
2023-05-20T15:38:40.095Z,47.26
2023-05-20T15:41:06.658Z,47.21
2023-05-20T15:43:33.031Z,47.29
2023-05-20T15:46:00.599Z,47.47
2023-05-20T15:48:26.982Z,47.36
2023-05-20T15:50:53.390Z,47.38
2023-05-20T15:53:19.821Z,47.36
2023-05-20T15:55:46.250Z,47.37
2023-05-20T15:58:12.635Z,47.38
2023-05-20T16:00:39.220Z,47.37
2023-05-20T16:03:05.720Z,47.40
2023-05-20T16:05:32.430Z,47.34
2023-05-20T16:07:58.885Z,47.25
2023-05-20T16:10:26.255Z,47.20
2023-05-20T16:12:52.679Z,47.24
2023-05-20T16:15:19.073Z,47.41
2023-05-20T16:17:45.459Z,47.22
2023-05-20T16:20:11.892Z,47.49
2023-05-20T16:22:38.294Z,47.40
2023-05-20T16:25:04.742Z,47.42
2023-05-20T16:27:31.573Z,47.29
2023-05-20T16:29:57.982Z,47.33
2023-05-20T16:32:24.424Z,47.15
2023-05-20T16:34:50.848Z,47.14
2023-05-20T16:37:17.251Z,47.27
2023-05-20T16:39:43.646Z,47.34
2023-05-20T16:42:10.082Z,47.23
2023-05-20T16:44:38.747Z,47.37
2023-05-20T16:47:08.831Z,47.30
2023-05-20T16:49:35.685Z,47.33
2023-05-20T16:52:02.134Z,47.34
2023-05-20T16:54:28.569Z,47.04
2023-05-20T16:56:54.987Z,46.91
2023-05-20T16:59:21.609Z,47.18
2023-05-20T17:01:47.997Z,47.14
2023-05-20T17:04:14.415Z,47.17
2023-05-20T17:06:40.909Z,47.22
2023-05-20T17:09:07.427Z,47.23
2023-05-20T17:11:33.927Z,47.15
2023-05-20T17:14:00.736Z,47.37
2023-05-20T17:16:27.166Z,47.26
2023-05-20T17:18:53.675Z,47.07
2023-05-20T17:21:22.823Z,47.40
2023-05-20T17:23:49.219Z,47.11
2023-05-20T17:26:15.880Z,47.28
2023-05-20T17:28:42.288Z,47.29
2023-05-20T17:31:09.694Z,47.14
2023-05-20T17:33:36.251Z,47.37
2023-05-20T17:36:02.735Z,47.40
2023-05-20T17:38:29.117Z,47.12
2023-05-20T17:40:55.522Z,47.25
2023-05-20T17:43:21.901Z,47.15
2023-05-20T17:45:48.298Z,47.25
2023-05-20T17:48:14.764Z,47.19
2023-05-20T17:50:41.164Z,47.01
2023-05-20T17:53:08.136Z,47.07
2023-05-20T17:55:36.322Z,47.07
2023-05-20T17:58:03.101Z,47.33
2023-05-20T18:00:29.457Z,47.17
2023-05-20T18:02:58.592Z,47.04
2023-05-20T18:05:25.102Z,47.31
2023-05-20T18:07:52.113Z,47.23
2023-05-20T18:10:18.493Z,47.22
2023-05-20T18:12:45.540Z,47.26
2023-05-20T18:15:13.962Z,47.40
2023-05-20T18:17:40.680Z,47.14
2023-05-20T18:20:09.589Z,47.23
2023-05-20T18:22:36.013Z,47.27
2023-05-20T18:25:02.466Z,47.20
2023-05-20T18:27:28.850Z,47.20
2023-05-20T18:29:55.240Z,47.15
2023-05-20T18:32:26.541Z,47.50
2023-05-20T18:34:52.967Z,47.31
2023-05-20T18:37:19.362Z,47.41
2023-05-20T18:39:45.929Z,47.52
2023-05-20T18:42:12.345Z,47.56
2023-05-20T18:44:38.884Z,47.87
2023-05-20T18:47:05.394Z,48.64
2023-05-20T18:49:31.785Z,47.94
2023-05-20T18:51:58.165Z,47.65
2023-05-20T18:54:24.577Z,47.22
2023-05-20T18:56:51.221Z,47.71
2023-05-20T18:59:17.653Z,47.92
2023-05-20T19:01:44.049Z,48.00
2023-05-20T19:04:10.542Z,47.60
2023-05-20T19:06:37.516Z,48.50
2023-05-20T19:09:04.304Z,48.48
2023-05-20T19:11:30.994Z,47.96
2023-05-20T19:14:00.158Z,47.38
2023-05-20T19:16:26.762Z,46.44
2023-05-20T19:18:53.220Z,46.48
2023-05-20T19:21:19.657Z,46.29
2023-05-20T19:23:46.922Z,46.88
2023-05-20T19:26:13.358Z,47.16
2023-05-20T19:28:39.925Z,46.61
2023-05-20T19:31:06.368Z,46.60
2023-05-20T19:33:33.084Z,46.53
2023-05-20T19:35:59.958Z,46.59
2023-05-20T19:38:26.559Z,46.81
2023-05-20T19:40:53.949Z,46.95
2023-05-20T19:43:20.830Z,47.00
2023-05-20T19:45:48.023Z,46.78
2023-05-20T19:48:14.742Z,46.51
2023-05-20T19:50:41.766Z,46.90
2023-05-20T19:53:09.126Z,45.39
2023-05-20T19:55:36.634Z,45.67
2023-05-20T19:58:03.299Z,46.52
2023-05-20T20:00:29.749Z,46.70
2023-05-20T20:02:57.059Z,46.74
2023-05-20T20:05:25.861Z,46.18
2023-05-20T20:07:52.486Z,46.27
2023-05-20T20:10:18.855Z,47.30
2023-05-20T20:12:45.242Z,47.87
2023-05-20T20:15:11.798Z,47.54
2023-05-20T20:17:45.058Z,46.85
2023-05-20T20:20:13.800Z,46.48
2023-05-20T20:22:41.032Z,46.66
2023-05-20T20:25:08.184Z,46.64
2023-05-20T20:27:34.559Z,46.49
2023-05-20T20:30:00.950Z,46.49
2023-05-20T20:32:27.935Z,46.72
2023-05-20T20:34:54.352Z,46.91
2023-05-20T20:37:22.914Z,46.84
2023-05-20T20:39:50.036Z,47.26
2023-05-20T20:42:16.676Z,47.46
2023-05-20T20:44:43.111Z,47.41
2023-05-20T20:47:09.944Z,47.04
2023-05-20T20:49:36.506Z,47.08
2023-05-20T20:52:03.264Z,47.44
2023-05-20T20:54:29.649Z,47.34
2023-05-20T20:56:56.700Z,47.22
2023-05-20T20:59:26.739Z,47.41
2023-05-20T21:01:53.325Z,47.27
2023-05-20T21:04:19.889Z,47.46
2023-05-20T21:06:46.322Z,47.52
2023-05-20T21:09:16.109Z,47.26
2023-05-20T21:11:42.506Z,47.27
2023-05-20T21:14:09.255Z,47.19
2023-05-20T21:16:35.736Z,47.23
2023-05-20T21:19:02.178Z,47.20
2023-05-20T21:21:28.569Z,47.32
2023-05-20T21:23:56.461Z,47.22
2023-05-20T21:26:24.562Z,47.33
2023-05-20T21:28:51.347Z,47.22
2023-05-20T21:31:17.778Z,47.11
2023-05-20T21:33:44.194Z,47.17
2023-05-20T21:36:10.567Z,47.13
2023-05-20T21:38:36.948Z,47.12
2023-05-20T21:41:03.323Z,47.50
2023-05-20T21:43:30.638Z,47.51
2023-05-20T21:45:57.097Z,47.55
2023-05-20T21:48:23.522Z,47.31
2023-05-20T21:50:49.896Z,47.54
2023-05-20T21:53:16.269Z,47.26
2023-05-20T21:55:42.655Z,47.29
2023-05-20T21:58:09.043Z,47.49
2023-05-20T22:00:35.445Z,47.42
2023-05-20T22:03:01.995Z,47.24
2023-05-20T22:05:28.487Z,47.36
2023-05-20T22:07:54.868Z,47.17
2023-05-20T22:10:22.525Z,47.22
2023-05-20T22:12:50.753Z,47.36
2023-05-20T22:15:17.411Z,47.38
2023-05-20T22:17:44.703Z,47.53
2023-05-20T22:20:11.511Z,47.28
2023-05-20T22:22:39.076Z,47.37
2023-05-20T22:25:06.180Z,47.27
2023-05-20T22:27:32.696Z,47.57
2023-05-20T22:29:59.295Z,47.60
2023-05-20T22:32:25.796Z,47.40
2023-05-20T22:34:53.415Z,47.42
2023-05-20T22:37:20.374Z,47.67
2023-05-20T22:39:46.761Z,47.63
2023-05-20T22:42:13.137Z,47.40
2023-05-20T22:44:39.529Z,47.67
2023-05-20T22:47:05.991Z,47.57
2023-05-20T22:49:32.708Z,47.55
2023-05-20T22:51:59.330Z,47.71
2023-05-20T22:54:26.088Z,47.30
2023-05-20T22:56:57.853Z,47.65
2023-05-20T22:59:24.309Z,47.49
2023-05-20T23:01:50.706Z,47.71
2023-05-20T23:04:17.096Z,47.70
2023-05-20T23:06:45.473Z,47.51
2023-05-20T23:09:12.427Z,47.49
2023-05-20T23:11:38.960Z,47.52
2023-05-20T23:14:05.427Z,47.65
2023-05-20T23:16:31.930Z,47.65
2023-05-20T23:18:58.336Z,47.73
2023-05-20T23:21:24.732Z,47.69
2023-05-20T23:23:51.117Z,47.77
2023-05-20T23:26:17.518Z,47.66
2023-05-20T23:28:43.893Z,47.61
2023-05-20T23:31:10.334Z,47.83
2023-05-20T23:33:36.829Z,47.70
2023-05-20T23:36:03.311Z,47.82
2023-05-20T23:38:30.467Z,47.53
2023-05-20T23:40:57.179Z,47.63
2023-05-20T23:43:23.602Z,47.67
2023-05-20T23:45:50.075Z,47.84
2023-05-20T23:48:17.759Z,47.77
2023-05-20T23:50:44.343Z,47.64
2023-05-20T23:53:10.725Z,47.83
2023-05-20T23:55:37.478Z,47.75
2023-05-20T23:58:04.078Z,47.83
